Nazimovo, Russia
Current Conditions -  °F | °C
As of 4:30 PM on Saturday 25 Oct 2014 (Local Time) from UNKL Reporting Station
Overcast Overcast  
Wind Chill: 24°   Ceiling: 8300
Heat Index: 32°   Visibility: 6mi
Dew Point: 25°   Wind: 9mph
Humidity: 75%   Direction: 110°ESE
Pressure: 29.94"   Gusts: NA
Location:  59.5°N, 91.02°E
Report Text: UNKL 250930Z 11004MPS 9999 SCT043 OVC083 M00/M04 Q1014 NOSIGRMK QFE735 11////55
Loading
Personal Weather Stations






























Interactive Weather Map
Tropical Storm Tracking
New forecast layout! Learn more

10-Day Weather Forecast

Advertisements
Track Severe Weather on mobile